Time;durP1;ratioP1;P1;durP2;ratioP2;P2;SDS_P1;SDS_P2;PMS_P1;PMS_P2;Temp;Humidity;BMP_temperature;BMP_pressure;BME280_temperature;BME280_humidity;BME280_pressure;Samples;Min_cycle;Max_cycle;Signal;HPM_P1;HPM_P2
2022/07/03 00:01:44;;;;;;;1.10;1.00;;;17.90;58.30;;;;;;5057950;28;20033;-61
2022/07/03 00:04:10;;;;;;;1.63;1.30;;;17.80;58.40;;;;;;5065531;28;20021;-62
2022/07/03 00:06:36;;;;;;;1.33;1.23;;;17.80;58.50;;;;;;5042815;28;20029;-60
2022/07/03 00:09:04;;;;;;;4.88;1.30;;;17.80;58.50;;;;;;5062904;28;20032;-61
2022/07/03 00:11:29;;;;;;;3.53;1.40;;;17.80;58.60;;;;;;5045197;28;20044;-60
2022/07/03 00:13:55;;;;;;;3.85;1.50;;;17.70;58.30;;;;;;5036884;28;20029;-60
2022/07/03 00:16:21;;;;;;;2.53;1.35;;;17.70;58.20;;;;;;5048616;28;20038;-60
2022/07/03 00:18:47;;;;;;;1.30;1.05;;;17.70;58.10;;;;;;5065943;28;20060;-62
2022/07/03 00:21:18;;;;;;;4.70;1.20;;;17.70;58.10;;;;;;5045745;28;20033;-60
2022/07/03 00:23:50;;;;;;;1.52;1.00;;;17.70;58.40;;;;;;5045208;28;20038;-60
2022/07/03 00:26:19;;;;;;;3.17;1.08;;;17.60;58.40;;;;;;5048823;28;20032;-59
2022/07/03 00:28:45;;;;;;;1.20;1.10;;;17.60;58.50;;;;;;5053017;28;20436;-62
2022/07/03 00:31:11;;;;;;;2.38;1.00;;;17.60;58.50;;;;;;5047868;28;20018;-60
2022/07/03 00:33:37;;;;;;;1.10;1.00;;;17.50;58.60;;;;;;5053405;28;20040;-60
2022/07/03 00:36:03;;;;;;;2.70;1.02;;;17.50;58.60;;;;;;5048704;28;20037;-61
2022/07/03 00:38:30;;;;;;;3.08;1.10;;;17.50;58.70;;;;;;5050869;28;20449;-62
2022/07/03 00:40:55;;;;;;;2.28;1.20;;;17.50;58.80;;;;;;5045376;28;20041;-62
2022/07/03 00:43:21;;;;;;;1.70;1.00;;;17.50;58.90;;;;;;5045020;28;20021;-60
2022/07/03 00:45:49;;;;;;;3.90;1.08;;;17.40;59.00;;;;;;5047326;28;20029;-61
2022/07/03 00:48:17;;;;;;;2.03;1.40;;;17.40;59.20;;;;;;5053932;28;20028;-61
2022/07/03 00:50:47;;;;;;;1.83;1.00;;;17.40;59.70;;;;;;5052307;28;20127;-61
2022/07/03 00:53:16;;;;;;;1.60;1.30;;;17.40;59.50;;;;;;5039352;28;20037;-62
2022/07/03 00:55:46;;;;;;;2.30;1.10;;;17.40;59.20;;;;;;5045300;28;20101;-63
2022/07/03 00:58:16;;;;;;;7.35;1.52;;;17.30;59.50;;;;;;5036262;28;20029;-60
2022/07/03 01:00:43;;;;;;;1.95;1.30;;;17.30;59.50;;;;;;5046675;28;20029;-60
2022/07/03 01:03:15;;;;;;;2.63;1.60;;;17.30;59.30;;;;;;5053826;28;20048;-61
2022/07/03 01:05:49;;;;;;;3.88;2.75;;;17.30;59.70;;;;;;5053162;28;20140;-60
2022/07/03 01:08:30;;;;;;;2.75;1.75;;;17.20;59.90;;;;;;5035113;28;20028;-60
2022/07/03 01:11:18;;;;;;;1.30;1.20;;;17.20;59.70;;;;;;5042641;28;20149;-60
2022/07/03 01:14:08;;;;;;;2.72;1.05;;;17.20;60.60;;;;;;5055174;28;20052;-60
2022/07/03 01:16:41;;;;;;;1.13;1.02;;;17.20;60.40;;;;;;5041486;28;20065;-61
2022/07/03 01:19:26;;;;;;;1.70;1.20;;;17.10;59.80;;;;;;5034411;28;20093;-61
2022/07/03 01:22:25;;;;;;;3.35;1.40;;;17.10;60.10;;;;;;5046669;28;20491;-61
2022/07/03 01:25:28;;;;;;;3.00;1.38;;;17.10;60.20;;;;;;5044105;28;20045;-63
2022/07/03 01:28:09;;;;;;;1.50;1.08;;;17.10;60.60;;;;;;5055481;28;20059;-61
2022/07/03 01:30:48;;;;;;;1.70;1.20;;;17.00;59.50;;;;;;5043111;28;20051;-60
2022/07/03 01:33:19;;;;;;;2.00;1.15;;;17.00;60.30;;;;;;5041123;28;20051;-61
2022/07/03 01:36:08;;;;;;;1.67;1.00;;;17.00;60.20;;;;;;5044538;28;20041;-61
2022/07/03 01:38:35;;;;;;;1.35;1.00;;;16.90;60.40;;;;;;5042975;28;20048;-61
2022/07/03 01:41:04;;;;;;;2.25;1.20;;;17.00;60.00;;;;;;5049730;28;20542;-60
2022/07/03 01:43:54;;;;;;;3.47;2.67;;;16.90;60.20;;;;;;5043052;28;20188;-61
2022/07/03 01:46:26;;;;;;;5.32;3.95;;;16.90;60.50;;;;;;5036992;28;20046;-60
2022/07/03 01:48:54;;;;;;;6.32;3.70;;;16.90;60.20;;;;;;5029194;28;20033;-60
2022/07/03 01:51:20;;;;;;;4.85;2.80;;;16.80;60.20;;;;;;5033066;28;20057;-61
2022/07/03 01:53:51;;;;;;;3.75;2.30;;;16.80;60.40;;;;;;5035433;28;20156;-61
2022/07/03 01:56:18;;;;;;;3.38;2.03;;;16.80;60.90;;;;;;5052735;28;20033;-60
2022/07/03 01:58:45;;;;;;;2.35;1.88;;;16.80;60.50;;;;;;5045115;28;20021;-60
2022/07/03 02:01:21;;;;;;;3.72;2.33;;;16.80;60.40;;;;;;5043854;28;20455;-61
2022/07/03 02:04:11;;;;;;;4.85;2.40;;;16.70;61.30;;;;;;5041302;28;20056;-60
2022/07/03 02:07:13;;;;;;;4.95;2.20;;;16.70;61.00;;;;;;5043297;28;20049;-61
2022/07/03 02:09:48;;;;;;;5.97;2.47;;;16.70;61.80;;;;;;5032180;28;20045;-61
2022/07/03 02:12:18;;;;;;;5.65;2.10;;;16.70;61.10;;;;;;5027045;28;20068;-60
2022/07/03 02:14:57;;;;;;;3.20;1.88;;;16.60;60.80;;;;;;5042105;28;20025;-61
2022/07/03 02:17:26;;;;;;;2.85;1.83;;;16.60;60.90;;;;;;5041571;28;20021;-62
2022/07/03 02:20:07;;;;;;;2.97;1.52;;;16.60;60.70;;;;;;5047681;28;20018;-61
2022/07/03 02:22:37;;;;;;;1.20;1.10;;;16.50;61.00;;;;;;5042439;28;20081;-60
2022/07/03 02:25:06;;;;;;;1.75;1.40;;;16.50;61.40;;;;;;5037662;28;20060;-60
2022/07/03 02:28:06;;;;;;;1.70;1.30;;;16.50;61.50;;;;;;5050937;28;20064;-61
2022/07/03 02:30:35;;;;;;;1.77;1.27;;;16.50;62.70;;;;;;5023140;28;20107;-61
2022/07/03 02:33:02;;;;;;;4.82;1.20;;;16.50;61.50;;;;;;5051191;28;20040;-60
2022/07/03 02:35:27;;;;;;;2.42;1.17;;;16.50;61.30;;;;;;5047950;28;20118;-60
2022/07/03 02:38:09;;;;;;;2.00;1.42;;;16.50;61.50;;;;;;5057748;28;20512;-62
2022/07/03 02:40:58;;;;;;;2.25;1.60;;;16.40;62.40;;;;;;5072047;28;20029;-59
2022/07/03 02:43:49;;;;;;;2.97;1.88;;;16.40;61.80;;;;;;5025600;28;20026;-60
2022/07/03 02:46:49;;;;;;;1.42;1.27;;;16.40;61.90;;;;;;5034926;28;20033;-60
2022/07/03 02:49:29;;;;;;;1.75;1.20;;;16.40;62.10;;;;;;5034767;28;20039;-61
2022/07/03 02:52:08;;;;;;;1.17;1.08;;;16.40;61.20;;;;;;5042488;28;20056;-61
2022/07/03 02:54:43;;;;;;;1.30;1.20;;;16.30;61.90;;;;;;5035688;28;20101;-61
2022/07/03 02:57:09;;;;;;;1.48;1.30;;;16.30;62.10;;;;;;5040288;28;20040;-62
2022/07/03 02:59:54;;;;;;;1.70;1.15;;;16.30;61.80;;;;;;5052761;28;20022;-61
2022/07/03 03:02:29;;;;;;;2.33;1.20;;;16.20;62.90;;;;;;5049843;28;20477;-60
2022/07/03 03:05:21;;;;;;;3.70;1.33;;;16.20;62.10;;;;;;5047918;28;20038;-60
2022/07/03 03:08:02;;;;;;;2.35;1.40;;;16.20;62.80;;;;;;5042122;28;20038;-60
2022/07/03 03:10:28;;;;;;;1.67;1.25;;;16.20;62.70;;;;;;5043870;28;20033;-60
2022/07/03 03:13:14;;;;;;;1.70;1.60;;;16.20;62.10;;;;;;5061576;28;20291;-62
2022/07/03 03:15:47;;;;;;;3.42;1.67;;;16.20;63.30;;;;;;5043051;28;20069;-62
2022/07/03 03:18:21;;;;;;;2.60;1.65;;;16.10;62.50;;;;;;5031245;28;20029;-61
2022/07/03 03:20:50;;;;;;;2.80;1.65;;;16.10;62.40;;;;;;5051342;28;20059;-60
2022/07/03 03:23:33;;;;;;;3.65;1.70;;;16.10;62.00;;;;;;5061754;28;20124;-61
2022/07/03 03:25:59;;;;;;;2.33;1.50;;;16.10;62.00;;;;;;5051908;28;20068;-60
2022/07/03 03:28:25;;;;;;;3.67;1.35;;;16.00;61.80;;;;;;5050510;28;20045;-59
2022/07/03 03:30:51;;;;;;;1.63;1.40;;;16.00;62.10;;;;;;5051081;28;20123;-60
2022/07/03 03:33:18;;;;;;;3.00;1.30;;;16.00;62.20;;;;;;5054838;28;20053;-60
2022/07/03 03:35:43;;;;;;;6.18;1.38;;;16.00;62.30;;;;;;5047151;28;20037;-62
2022/07/03 03:38:10;;;;;;;1.33;1.00;;;16.00;62.50;;;;;;5032778;28;20022;-61
2022/07/03 03:40:35;;;;;;;3.58;1.05;;;16.00;62.70;;;;;;5049234;28;20025;-61
2022/07/03 03:43:02;;;;;;;1.17;0.90;;;16.00;62.80;;;;;;5056072;28;20084;-60
2022/07/03 03:45:28;;;;;;;2.97;0.90;;;16.00;63.10;;;;;;5050144;28;20029;-61
2022/07/03 03:47:54;;;;;;;1.60;1.10;;;16.00;63.10;;;;;;5039787;28;20072;-60
2022/07/03 03:50:20;;;;;;;1.88;1.08;;;16.00;63.30;;;;;;5046111;28;20425;-62
2022/07/03 03:52:46;;;;;;;4.10;1.45;;;16.00;63.30;;;;;;5051115;28;20029;-61
2022/07/03 03:55:12;;;;;;;7.57;1.65;;;16.00;63.20;;;;;;5041532;28;20044;-61
2022/07/03 03:57:38;;;;;;;2.20;1.23;;;16.00;63.20;;;;;;5044857;28;20124;-61
2022/07/03 04:00:05;;;;;;;2.17;1.10;;;15.90;63.20;;;;;;5054757;28;20131;-60
2022/07/03 04:02:31;;;;;;;1.50;1.00;;;15.90;63.30;;;;;;5052733;28;20031;-60
2022/07/03 04:04:57;;;;;;;2.47;1.02;;;15.90;63.30;;;;;;5057896;28;20029;-61
2022/07/03 04:07:22;;;;;;;2.92;1.10;;;16.00;63.40;;;;;;5054299;28;20045;-60
2022/07/03 04:09:48;;;;;;;4.90;1.20;;;16.00;63.30;;;;;;5060445;28;20112;-61
2022/07/03 04:12:14;;;;;;;2.38;1.05;;;16.00;63.30;;;;;;5054589;28;20029;-59
2022/07/03 04:14:40;;;;;;;0.90;0.90;;;16.00;63.50;;;;;;5033435;28;20114;-60
2022/07/03 04:17:05;;;;;;;1.13;1.00;;;16.10;63.70;;;;;;5038187;28;20014;-60
2022/07/03 04:19:33;;;;;;;1.95;1.10;;;16.10;63.70;;;;;;5063269;28;20033;-62
2022/07/03 04:21:59;;;;;;;2.80;1.20;;;16.20;63.60;;;;;;5065334;28;20029;-60
2022/07/03 04:24:25;;;;;;;1.98;0.90;;;16.20;63.50;;;;;;5059927;28;20021;-60
2022/07/03 04:26:51;;;;;;;1.83;0.85;;;16.30;63.60;;;;;;5052620;28;20029;-60
2022/07/03 04:29:16;;;;;;;1.35;1.10;;;16.30;63.50;;;;;;5065996;28;20056;-60
2022/07/03 04:31:42;;;;;;;4.78;1.20;;;16.40;63.50;;;;;;5043618;28;20030;-63
2022/07/03 04:34:08;;;;;;;1.92;1.27;;;16.40;63.50;;;;;;5042327;28;20115;-60
2022/07/03 04:36:33;;;;;;;2.13;1.30;;;16.50;63.80;;;;;;5054022;28;20043;-60
2022/07/03 04:38:59;;;;;;;1.35;1.00;;;16.60;63.80;;;;;;5049228;28;20026;-61
2022/07/03 04:41:24;;;;;;;3.05;1.10;;;16.60;63.70;;;;;;5055776;28;20040;-61
2022/07/03 04:43:50;;;;;;;1.73;1.08;;;16.70;63.70;;;;;;5044970;28;20029;-61
2022/07/03 04:46:16;;;;;;;1.17;1.00;;;16.80;63.60;;;;;;5044161;28;20096;-61
2022/07/03 04:48:41;;;;;;;4.28;1.17;;;16.80;63.70;;;;;;5059910;28;20025;-61
2022/07/03 04:51:07;;;;;;;3.63;1.00;;;16.90;63.80;;;;;;5056904;28;20510;-60
2022/07/03 04:53:33;;;;;;;2.70;1.08;;;17.00;63.60;;;;;;5062120;28;20025;-61
2022/07/03 04:55:58;;;;;;;1.23;1.00;;;17.10;63.50;;;;;;5054069;28;20033;-60
2022/07/03 04:58:25;;;;;;;1.42;1.15;;;17.20;63.50;;;;;;5063265;28;20052;-60
2022/07/03 05:00:51;;;;;;;2.38;1.20;;;17.30;63.50;;;;;;5051230;28;20159;-60
2022/07/03 05:03:16;;;;;;;6.00;1.20;;;17.40;63.50;;;;;;5065273;28;20080;-60
2022/07/03 05:05:42;;;;;;;1.15;1.13;;;17.50;63.40;;;;;;5044338;28;20026;-60
2022/07/03 05:08:08;;;;;;;2.63;1.13;;;17.60;63.20;;;;;;5061940;28;20076;-61
2022/07/03 05:10:34;;;;;;;1.77;0.90;;;17.70;63.20;;;;;;5047779;28;20097;-60
2022/07/03 05:12:59;;;;;;;3.22;1.10;;;17.80;63.20;;;;;;5043552;28;20041;-61
2022/07/03 05:15:25;;;;;;;1.35;1.02;;;17.90;63.20;;;;;;5046441;28;20068;-61
2022/07/03 05:17:50;;;;;;;1.73;1.10;;;18.00;63.00;;;;;;5064995;28;20052;-61
2022/07/03 05:20:28;;;;;;;2.15;1.10;;;18.10;62.80;;;;;;5043754;28;20029;-61
2022/07/03 05:22:58;;;;;;;1.20;1.10;;;18.20;62.70;;;;;;5043376;28;20033;-62
2022/07/03 05:25:24;;;;;;;2.22;1.15;;;18.30;62.80;;;;;;5044832;28;20025;-61
2022/07/03 05:27:52;;;;;;;3.42;1.20;;;18.50;62.50;;;;;;5056941;28;20053;-61
2022/07/03 05:30:19;;;;;;;2.13;1.23;;;18.60;62.40;;;;;;5047706;28;20025;-60
2022/07/03 05:32:45;;;;;;;1.65;0.95;;;18.70;62.20;;;;;;5057304;28;20041;-59
2022/07/03 05:35:11;;;;;;;2.00;1.20;;;18.80;62.10;;;;;;5048734;28;20025;-60
2022/07/03 05:37:36;;;;;;;2.47;1.10;;;18.90;62.20;;;;;;5058839;28;20051;-60
2022/07/03 05:40:04;;;;;;;1.60;1.10;;;19.00;62.20;;;;;;5058841;28;20039;-60
2022/07/03 05:42:29;;;;;;;1.50;1.02;;;19.20;62.20;;;;;;5054338;28;20018;-61
2022/07/03 05:44:55;;;;;;;7.03;1.20;;;19.30;61.90;;;;;;5051063;28;20041;-61
2022/07/03 05:47:21;;;;;;;1.67;1.00;;;19.40;61.40;;;;;;5047535;28;20114;-59
2022/07/03 05:49:47;;;;;;;3.35;1.25;;;19.50;61.20;;;;;;5049844;28;20014;-60
2022/07/03 05:52:13;;;;;;;3.60;1.10;;;19.60;61.10;;;;;;5053103;28;20060;-61
2022/07/03 05:54:39;;;;;;;3.50;1.02;;;19.80;61.10;;;;;;5051991;28;20037;-61
2022/07/03 05:57:05;;;;;;;6.50;1.20;;;19.90;61.00;;;;;;5059621;28;20056;-60
2022/07/03 05:59:31;;;;;;;1.40;1.20;;;20.00;60.70;;;;;;5053820;28;20083;-60
2022/07/03 06:01:57;;;;;;;3.03;1.15;;;20.20;60.70;;;;;;5054923;28;20021;-60
2022/07/03 06:04:22;;;;;;;1.80;1.13;;;20.30;60.50;;;;;;5043001;28;20032;-61
2022/07/03 06:06:48;;;;;;;3.20;1.20;;;20.40;59.90;;;;;;5052480;28;20029;-60
2022/07/03 06:09:14;;;;;;;2.33;1.23;;;20.60;59.70;;;;;;5045236;28;20049;-60
2022/07/03 06:11:39;;;;;;;0.90;0.90;;;20.70;59.50;;;;;;5053708;28;20022;-59
2022/07/03 06:14:05;;;;;;;2.35;1.13;;;20.80;59.20;;;;;;5045655;28;20040;-61
2022/07/03 06:16:31;;;;;;;3.72;1.10;;;21.00;59.20;;;;;;5047131;28;20029;-59
2022/07/03 06:18:56;;;;;;;3.20;1.10;;;21.10;59.10;;;;;;5047790;28;20431;-59
2022/07/03 06:21:22;;;;;;;1.75;1.20;;;21.30;59.50;;;;;;5045464;28;20037;-59
2022/07/03 06:23:48;;;;;;;2.05;1.05;;;21.40;58.70;;;;;;5049136;28;20175;-60
2022/07/03 06:26:14;;;;;;;1.52;1.13;;;21.50;58.50;;;;;;4971359;28;20066;-60
2022/07/03 06:28:40;;;;;;;2.72;1.23;;;21.70;58.30;;;;;;5045725;28;20045;-60
2022/07/03 06:31:06;;;;;;;5.22;1.15;;;21.80;58.00;;;;;;5064565;28;20059;-59
2022/07/03 06:33:32;;;;;;;1.73;1.00;;;21.90;58.00;;;;;;5043617;28;20033;-60
2022/07/03 06:35:57;;;;;;;2.50;1.30;;;22.00;57.60;;;;;;5039809;28;20041;-60
2022/07/03 06:38:23;;;;;;;1.80;1.05;;;22.20;57.50;;;;;;5057594;28;20017;-60
2022/07/03 06:40:49;;;;;;;1.67;0.90;;;22.30;57.60;;;;;;5049201;28;20391;-60
2022/07/03 06:43:14;;;;;;;2.67;1.00;;;22.40;57.30;;;;;;5054992;28;20032;-61
2022/07/03 06:45:40;;;;;;;1.52;0.90;;;22.50;57.20;;;;;;5051600;28;20029;-60
2022/07/03 06:48:06;;;;;;;3.08;1.00;;;22.60;57.30;;;;;;5057505;28;20030;-60
2022/07/03 06:50:31;;;;;;;2.05;0.98;;;22.80;57.10;;;;;;5053372;28;20030;-60
2022/07/03 06:52:57;;;;;;;1.42;0.80;;;22.90;56.80;;;;;;5049939;28;20022;-60
2022/07/03 06:55:23;;;;;;;3.53;0.90;;;23.00;56.70;;;;;;5049443;28;20048;-61
2022/07/03 06:57:48;;;;;;;2.72;0.82;;;23.10;56.50;;;;;;5052161;28;20503;-60
2022/07/03 07:00:14;;;;;;;4.57;0.95;;;23.20;56.40;;;;;;5046321;28;20038;-60
2022/07/03 07:02:40;;;;;;;2.10;0.95;;;23.30;56.50;;;;;;5061892;28;20053;-60
2022/07/03 07:05:06;;;;;;;1.50;0.90;;;23.30;56.50;;;;;;5044625;28;20461;-60
2022/07/03 07:07:31;;;;;;;1.58;0.77;;;23.50;56.60;;;;;;5062399;28;20124;-59
2022/07/03 07:09:57;;;;;;;2.35;0.90;;;23.60;56.80;;;;;;5067393;28;20411;-60
2022/07/03 07:12:23;;;;;;;0.80;0.75;;;23.80;56.80;;;;;;5053949;28;20064;-61
2022/07/03 07:14:49;;;;;;;1.67;0.90;;;23.90;56.40;;;;;;5047936;28;20039;-61
2022/07/03 07:17:14;;;;;;;1.08;0.80;;;24.10;56.10;;;;;;5047456;28;20396;-61
2022/07/03 07:19:40;;;;;;;1.13;0.70;;;24.20;55.90;;;;;;5048785;28;20030;-60
2022/07/03 07:22:06;;;;;;;4.22;1.20;;;24.40;55.90;;;;;;5047368;28;20056;-60
2022/07/03 07:24:32;;;;;;;1.42;1.00;;;24.60;55.60;;;;;;5045699;28;20415;-61
2022/07/03 07:26:57;;;;;;;3.28;1.10;;;24.70;55.00;;;;;;5049707;28;20029;-61
2022/07/03 07:29:23;;;;;;;3.92;1.20;;;24.90;55.30;;;;;;5040368;28;20487;-61
2022/07/03 07:31:49;;;;;;;0.93;0.70;;;25.00;55.20;;;;;;5039962;28;20037;-61
2022/07/03 07:34:14;;;;;;;2.10;0.80;;;25.10;55.00;;;;;;5045708;28;20029;-60
2022/07/03 07:36:40;;;;;;;2.47;0.82;;;25.30;54.80;;;;;;5048645;28;20235;-62
2022/07/03 07:39:06;;;;;;;2.90;0.90;;;25.40;54.50;;;;;;5046378;28;20055;-60
2022/07/03 07:41:31;;;;;;;0.73;0.73;;;25.60;54.50;;;;;;5059850;28;20421;-61
2022/07/03 07:43:57;;;;;;;1.10;0.70;;;25.70;54.40;;;;;;5048733;28;20085;-61
2022/07/03 07:46:23;;;;;;;1.50;1.13;;;25.90;54.30;;;;;;5051202;28;20032;-60
2022/07/03 07:48:49;;;;;;;1.10;0.60;;;26.10;53.90;;;;;;5045555;28;20028;-60
2022/07/03 07:51:15;;;;;;;0.90;0.80;;;26.20;53.70;;;;;;5053932;28;20017;-61
2022/07/03 07:53:40;;;;;;;2.53;0.82;;;26.40;53.30;;;;;;5040969;28;20030;-60
2022/07/03 07:56:06;;;;;;;2.58;0.77;;;26.50;53.40;;;;;;5060858;28;20106;-60
2022/07/03 07:58:32;;;;;;;1.48;0.75;;;26.70;53.20;;;;;;5052616;28;20089;-60
2022/07/03 08:06:46;;;;;;;1.05;0.60;;;27.10;52.70;;;;;;4999558;28;20042;-60
2022/07/03 08:09:12;;;;;;;2.25;0.85;;;27.30;52.70;;;;;;5005701;28;20042;-60
2022/07/03 08:11:37;;;;;;;1.38;0.60;;;27.40;51.80;;;;;;5010576;28;20104;-60
2022/07/03 08:14:04;;;;;;;2.15;0.57;;;27.50;51.30;;;;;;5006734;28;20079;-59
2022/07/03 08:16:31;;;;;;;1.13;0.70;;;27.60;51.30;;;;;;4996374;28;20079;-60
2022/07/03 08:18:56;;;;;;;0.95;0.50;;;27.80;51.30;;;;;;5004126;28;20030;-61
2022/07/03 08:21:22;;;;;;;3.22;0.70;;;27.90;51.20;;;;;;5012167;28;20084;-61
2022/07/03 08:23:48;;;;;;;0.82;0.50;;;28.00;51.10;;;;;;5004482;28;20034;-61
2022/07/03 08:26:14;;;;;;;1.27;0.50;;;28.10;50.70;;;;;;5015351;28;20522;-60
2022/07/03 08:28:39;;;;;;;0.63;0.50;;;28.30;50.00;;;;;;4965092;28;1160178;-61
2022/07/03 08:31:05;;;;;;;3.33;0.80;;;28.40;49.70;;;;;;5021197;28;20668;-61
2022/07/03 08:33:31;;;;;;;1.50;0.68;;;28.50;49.70;;;;;;5010378;28;20065;-61
2022/07/03 08:35:57;;;;;;;5.25;0.60;;;28.60;49.50;;;;;;5062865;28;20052;-61
2022/07/03 08:38:30;;;;;;;1.35;1.10;;;28.70;49.20;;;;;;5052794;28;20032;-60
2022/07/03 08:40:59;;;;;;;2.27;0.90;;;28.80;48.30;;;;;;5059162;28;20079;-60
2022/07/03 08:43:25;;;;;;;1.08;0.60;;;28.90;48.10;;;;;;5046789;28;20272;-61
2022/07/03 08:45:51;;;;;;;0.50;0.50;;;29.00;48.50;;;;;;5060415;28;20017;-62
2022/07/03 08:48:20;;;;;;;2.88;0.60;;;29.10;47.80;;;;;;5045130;28;20124;-61
2022/07/03 08:50:46;;;;;;;0.60;0.40;;;29.20;47.10;;;;;;5053412;28;20026;-61
2022/07/03 08:53:12;;;;;;;0.80;0.55;;;29.30;46.80;;;;;;5044887;28;20057;-61
2022/07/03 08:55:38;;;;;;;3.25;0.80;;;29.50;46.80;;;;;;5046183;28;20484;-61
2022/07/03 08:58:07;;;;;;;0.70;0.60;;;29.60;46.60;;;;;;5062882;28;20088;-61
2022/07/03 09:00:32;;;;;;;1.52;0.50;;;29.70;47.00;;;;;;5038418;28;20496;-60
2022/07/03 09:02:59;;;;;;;0.57;0.47;;;29.70;46.10;;;;;;5052845;28;20049;-61
2022/07/03 09:05:25;;;;;;;0.43;0.40;;;29.80;45.50;;;;;;5049768;28;20029;-61
2022/07/03 09:07:52;;;;;;;0.20;0.20;;;29.90;45.50;;;;;;5050940;28;20033;-61
2022/07/03 09:10:19;;;;;;;0.85;0.40;;;30.00;43.90;;;;;;5044445;28;20056;-62
2022/07/03 09:12:47;;;;;;;0.63;0.40;;;30.10;43.00;;;;;;5039479;28;20029;-61
2022/07/03 09:15:14;;;;;;;0.55;0.50;;;30.10;41.80;;;;;;5039279;28;20034;-61
2022/07/03 09:17:55;;;;;;;1.27;0.70;;;30.10;41.00;;;;;;5045708;28;20102;-60
2022/07/03 09:20:28;;;;;;;0.32;0.32;;;30.20;41.80;;;;;;5036212;28;20040;-61
2022/07/03 09:22:53;;;;;;;1.75;0.57;;;30.30;38.70;;;;;;5030875;28;20059;-60
2022/07/03 09:25:19;;;;;;;0.85;0.60;;;30.30;39.20;;;;;;5050687;28;20041;-61
2022/07/03 09:27:52;;;;;;;1.00;0.70;;;30.30;39.00;;;;;;5037627;28;20075;-61
2022/07/03 09:30:20;;;;;;;0.55;0.47;;;30.30;38.70;;;;;;5065699;28;20028;-61
2022/07/03 09:32:48;;;;;;;1.77;0.47;;;30.40;39.00;;;;;;5042344;28;20124;-61
2022/07/03 09:35:26;;;;;;;0.88;0.40;;;30.30;38.00;;;;;;5038925;28;20476;-61
2022/07/03 09:38:03;;;;;;;0.85;0.45;;;30.40;37.50;;;;;;5057510;28;20534;-61
2022/07/03 09:40:52;;;;;;;0.45;0.40;;;30.40;38.00;;;;;;5039714;28;20045;-60
2022/07/03 09:43:28;;;;;;;4.13;0.40;;;30.50;37.40;;;;;;5033038;28;20030;-61
2022/07/03 09:46:01;;;;;;;0.63;0.30;;;30.50;37.50;;;;;;5051256;28;20061;-61
2022/07/03 09:48:31;;;;;;;0.82;0.40;;;30.50;38.80;;;;;;5061280;28;20443;-61
2022/07/03 09:51:23;;;;;;;0.52;0.38;;;30.60;39.30;;;;;;5059235;28;20025;-60
2022/07/03 09:53:52;;;;;;;2.63;0.40;;;30.70;39.40;;;;;;5058243;28;20071;-61
2022/07/03 09:56:19;;;;;;;0.75;0.60;;;30.80;40.00;;;;;;5056940;28;20089;-60
2022/07/03 09:59:09;;;;;;;0.40;0.40;;;30.90;40.30;;;;;;5043046;28;20109;-60
2022/07/03 10:01:37;;;;;;;0.40;0.40;;;31.10;39.90;;;;;;5046631;28;20048;-61
2022/07/03 10:04:14;;;;;;;1.63;0.57;;;31.20;40.50;;;;;;5045381;28;20025;-60
2022/07/03 10:06:59;;;;;;;0.68;0.50;;;31.20;40.20;;;;;;5039179;28;20035;-61
2022/07/03 10:09:31;;;;;;;1.05;0.40;;;31.30;39.90;;;;;;5045238;28;20431;-61
2022/07/03 10:11:58;;;;;;;0.63;0.40;;;31.30;38.60;;;;;;5037120;28;20057;-62
2022/07/03 10:14:28;;;;;;;1.02;0.30;;;31.30;37.10;;;;;;5047658;28;20029;-61
2022/07/03 10:16:59;;;;;;;0.75;0.75;;;31.40;36.20;;;;;;5032181;28;20434;-60
2022/07/03 10:19:39;;;;;;;0.40;0.40;;;31.40;36.90;;;;;;5044218;28;20076;-59
2022/07/03 10:22:17;;;;;;;0.75;0.38;;;31.50;34.60;;;;;;5036301;28;20041;-61
2022/07/03 10:24:43;;;;;;;0.60;0.40;;;31.50;32.70;;;;;;5037228;28;20029;-60
2022/07/03 10:27:09;;;;;;;0.88;0.40;;;31.50;34.00;;;;;;5055986;28;20116;-61
2022/07/03 10:29:37;;;;;;;1.02;0.50;;;31.50;34.50;;;;;;5048352;28;20041;-61
2022/07/03 10:32:07;;;;;;;0.73;0.60;;;31.40;34.00;;;;;;5055299;28;20021;-60
2022/07/03 10:34:33;;;;;;;1.13;0.57;;;31.50;33.90;;;;;;5041432;28;20303;-61
2022/07/03 10:37:03;;;;;;;1.05;0.52;;;31.50;35.50;;;;;;5063376;28;20072;-60
2022/07/03 10:46:17;;;;;;;0.63;0.40;;;31.80;38.40;;;;;;5038659;28;20100;-61
2022/07/03 10:48:56;;;;;;;1.90;0.52;;;31.90;38.10;;;;;;5043400;28;20042;-60
2022/07/03 10:51:22;;;;;;;0.95;0.50;;;32.00;36.40;;;;;;5047928;28;20520;-61
2022/07/03 10:53:48;;;;;;;0.40;0.40;;;32.10;35.50;;;;;;5040225;28;20051;-60
2022/07/03 10:56:15;;;;;;;0.35;0.30;;;32.10;36.60;;;;;;5048069;28;20037;-62
2022/07/03 10:58:59;;;;;;;2.38;0.40;;;32.20;36.20;;;;;;5047597;28;20100;-62
2022/07/03 11:01:32;;;;;;;0.65;0.40;;;32.20;35.30;;;;;;5060589;28;20423;-60
2022/07/03 11:04:00;;;;;;;1.27;0.70;;;32.30;33.30;;;;;;5045375;28;20412;-61
2022/07/03 11:06:43;;;;;;;0.82;0.55;;;32.30;34.10;;;;;;5042841;28;20053;-60
2022/07/03 11:09:11;;;;;;;0.80;0.50;;;32.30;33.80;;;;;;5045538;28;20067;-60
2022/07/03 11:11:55;;;;;;;0.65;0.45;;;32.40;34.20;;;;;;5044848;28;20124;-60
2022/07/03 11:14:23;;;;;;;0.95;0.40;;;32.40;33.60;;;;;;5038687;28;20064;-61
2022/07/03 11:16:49;;;;;;;3.75;0.50;;;32.40;34.40;;;;;;5050162;28;20041;-60
2022/07/03 11:19:30;;;;;;;0.70;0.40;;;32.40;33.70;;;;;;5038606;28;20416;-60
2022/07/03 11:22:02;;;;;;;1.02;0.40;;;32.40;34.10;;;;;;5042772;28;20033;-60
2022/07/03 11:24:37;;;;;;;0.57;0.30;;;32.30;34.10;;;;;;5045551;28;20085;-60
2022/07/03 11:27:14;;;;;;;1.50;0.40;;;32.40;33.90;;;;;;5041227;28;20060;-61
2022/07/03 11:29:40;;;;;;;0.40;0.30;;;32.40;35.30;;;;;;5050745;28;20033;-61
2022/07/03 11:32:45;;;;;;;0.40;0.40;;;32.50;35.60;;;;;;5042689;28;20101;-61
2022/07/03 11:35:53;;;;;;;0.82;0.43;;;32.60;34.60;;;;;;5058591;28;20033;-60
2022/07/03 11:38:27;;;;;;;1.88;0.85;;;32.80;34.50;;;;;;5047995;28;20045;-60
2022/07/03 11:40:55;;;;;;;0.35;0.35;;;32.90;33.10;;;;;;5044072;28;20085;-61
2022/07/03 11:43:21;;;;;;;0.50;0.30;;;32.90;32.80;;;;;;5048193;28;20495;-61
2022/07/03 11:45:48;;;;;;;1.10;0.30;;;32.90;33.30;;;;;;5054530;28;20022;-61
2022/07/03 11:48:25;;;;;;;0.40;0.40;;;33.00;33.00;;;;;;5048168;28;20021;-60
2022/07/03 11:50:52;;;;;;;0.93;0.45;;;33.00;30.40;;;;;;5039466;28;20025;-61
2022/07/03 11:53:28;;;;;;;0.52;0.40;;;33.00;31.00;;;;;;5047073;28;20053;-60
2022/07/03 11:56:00;;;;;;;0.32;0.25;;;33.00;30.70;;;;;;5048648;28;20061;-61
2022/07/03 11:58:43;;;;;;;0.57;0.30;;;33.00;31.00;;;;;;5065168;28;20513;-61
2022/07/03 12:01:27;;;;;;;0.35;0.30;;;33.00;31.60;;;;;;5031357;28;20022;-59
2022/07/03 12:04:04;;;;;;;1.33;0.82;;;33.00;30.70;;;;;;5046394;28;20029;-60
2022/07/03 12:06:39;;;;;;;2.35;0.35;;;33.10;30.70;;;;;;5054007;28;20388;-61
2022/07/03 12:09:18;;;;;;;0.90;0.38;;;33.20;30.00;;;;;;5034836;28;20021;-61
2022/07/03 12:11:55;;;;;;;0.57;0.40;;;33.30;29.80;;;;;;5039672;28;20071;-61
2022/07/03 12:14:42;;;;;;;0.40;0.40;;;33.40;29.30;;;;;;5050786;28;20032;-60
2022/07/03 12:17:12;;;;;;;3.08;0.30;;;33.40;29.60;;;;;;5043098;28;20038;-60
2022/07/03 12:19:47;;;;;;;0.25;0.25;;;33.50;29.80;;;;;;5039177;28;20040;-62
2022/07/03 12:22:22;;;;;;;0.88;0.40;;;33.50;28.40;;;;;;5057717;28;20050;-61
2022/07/03 12:25:02;;;;;;;1.33;0.25;;;33.50;28.90;;;;;;5047981;28;20048;-62
2022/07/03 12:27:33;;;;;;;0.30;0.30;;;33.60;28.30;;;;;;5045270;28;20396;-62
2022/07/03 12:30:00;;;;;;;0.57;0.30;;;33.60;29.40;;;;;;5045956;28;20033;-61
2022/07/03 12:32:26;;;;;;;1.50;0.55;;;33.70;28.70;;;;;;5045368;28;20080;-61
2022/07/03 12:34:52;;;;;;;0.38;0.22;;;33.70;27.90;;;;;;5045265;28;20034;-59
2022/07/03 12:37:31;;;;;;;1.00;0.50;;;33.70;28.40;;;;;;5060888;28;20044;-61
2022/07/03 12:39:57;;;;;;;8.15;0.70;;;33.70;27.10;;;;;;5040759;28;20030;-61
2022/07/03 12:42:23;;;;;;;0.68;0.35;;;33.70;27.30;;;;;;5055529;28;20063;-60
2022/07/03 12:44:59;;;;;;;2.17;0.50;;;33.70;28.00;;;;;;5048432;28;20092;-62
2022/07/03 12:47:27;;;;;;;0.65;0.40;;;33.70;28.10;;;;;;5055109;28;20037;-61
2022/07/03 12:50:00;;;;;;;4.03;0.60;;;33.60;27.20;;;;;;5048726;28;20034;-60
2022/07/03 12:52:27;;;;;;;;;;;33.60;27.20;;;;;;5039284;28;20025;-61
2022/07/03 12:54:52;;;;;;;0.93;0.40;;;33.60;28.90;;;;;;5054427;28;19916;-62
2022/07/03 13:00:10;;;;;;;1.88;0.55;;;33.70;28.90;;;;;;5041681;28;20052;-62
2022/07/03 13:02:37;;;;;;;0.52;0.30;;;33.80;28.10;;;;;;5045281;28;20029;-61
2022/07/03 13:05:23;;;;;;;1.20;0.32;;;33.90;27.50;;;;;;5041688;28;20034;-61
2022/07/03 13:07:51;;;;;;;0.80;0.43;;;33.90;27.10;;;;;;5041762;28;20029;-61
2022/07/03 13:10:18;;;;;;;0.50;0.40;;;34.00;27.40;;;;;;5046413;28;20423;-60
2022/07/03 13:12:57;;;;;;;2.45;0.47;;;34.00;27.10;;;;;;5046512;28;20036;-62
2022/07/03 13:15:28;;;;;;;0.68;0.40;;;34.00;27.00;;;;;;5042886;28;20040;-62
2022/07/03 13:17:54;;;;;;;0.60;0.40;;;33.90;26.70;;;;;;5047484;28;20049;-61
2022/07/03 13:20:20;;;;;;;0.40;0.25;;;33.90;26.70;;;;;;5046129;28;20026;-61